Fremont, MI

7:52 PM EDT on October 14, 2019 (GMT -0400)
Fremont

Weather History for KFFX - August, 2019

Change the Weather History Date:

Friday, August 16, 2019

  Actual Average (WUND) Record (WUND)
Temperature  
Mean Temperature 66 °F -  
Max Temperature 79 °F - - (-1)
Min Temperature 53 °F - - (-1)
Cooling Degree Days 1    
Growing Degree Days 16 (Base 50)    
Moisture  
Dew Point 57 °F    
Average Humidity 74    
Maximum Humidity 100    
Minimum Humidity 33    
Precipitation  
Precipitation 0.00 in - - ()
Sea Level Pressure  
Sea Level Pressure 29.93 in    
Wind  
Wind Speed 4 mph (SSE)    
Max Wind Speed 16 mph    
Max Gust Speed 26 mph    
Visibility 9 miles    
Events Fog    
Averages and records for this station are not official NWS values.
T = Trace of Precipitation, MM = Missing Value Source: NWS Daily Summary

Daily Weather History Graph

Daily Weather History Graph

Search for Another Location

Airport or City:

Astronomy

Aug. 16, 2019 Rise Set
Actual Time 6:49 AM EDT 8:45 PM EDT
Civil Twilight 6:18 AM EDT 9:16 PM EDT
Nautical Twilight 5:41 AM EDT 9:54 PM EDT
Astronomical Twilight 4:59 AM EDT 10:35 PM EDT
Moon 9:43 PM EDT (8/16) 7:41 AM EDT (8/16)
Length of Visible Light 14h 57m
Length of Day
13h 56m
Full, 99% of the Moon is Illuminated
Aug 16
Full
Aug 23
Last Quarter
Aug 30
New
Sep 5
First Quarter
Sep 14
Full

Hourly Weather History & Observations

Time (EDT) Temp. Dew Point Humidity Pressure Visibility Wind Dir Wind Speed Gust Speed Precip Events Conditions
12:15 AM 59.5 °F 57.9 °F 94% 30.00 in 10.0 mi East 3.5 mph - N/A   Clear
12:39 AM 59.2 °F 58.8 °F 99% 30.00 in 10.0 mi Calm Calm - N/A   Clear
12:57 AM 57.7 °F 57.7 °F 100% 30.00 in 10.0 mi Calm Calm - N/A   Clear
1:15 AM 57.6 °F 57.6 °F 100% 30.01 in 10.0 mi Calm Calm - N/A   Clear
1:16 AM 57.6 °F 57.6 °F 100% 30.01 in 10.0 mi Calm Calm - N/A   Clear
1:35 AM 57.2 °F 57.2 °F 100% 30.02 in 10.0 mi Calm Calm - N/A   Clear
1:36 AM 57.0 °F 57.0 °F 100% 30.02 in 10.0 mi ESE 3.5 mph - N/A   Clear
1:55 AM 57.2 °F 57.2 °F 100% 30.01 in 10.0 mi Calm Calm - N/A   Clear
2:18 AM 57.0 °F 57.0 °F 100% 30.00 in 10.0 mi Calm Calm - N/A   Clear
2:36 AM 56.5 °F 56.5 °F 100% 30.00 in 10.0 mi Calm Calm - N/A   Clear
2:55 AM 56.1 °F 56.1 °F 100% 30.00 in 5.0 mi Calm Calm - N/A   Clear
2:56 AM 56.1 °F 56.1 °F 100% 30.00 in 5.0 mi Calm Calm - N/A   Clear
3:15 AM 55.8 °F 55.8 °F 100% 29.99 in 1.0 mi Calm Calm - N/A   Mist
3:39 AM 56.1 °F 56.1 °F 100% 29.99 in 1.2 mi East 3.5 mph - N/A   Mist
3:56 AM 54.7 °F 54.7 °F 100% 29.99 in 1.2 mi Calm Calm - N/A   Mist
4:15 AM 55.6 °F 55.6 °F 100% 29.98 in 1.5 mi East 3.5 mph - N/A   Mist
4:16 AM 55.6 °F 55.6 °F 100% 29.98 in 1.2 mi East 3.5 mph - N/A   Mist
4:35 AM 56.3 °F 56.3 °F 100% 29.98 in 10.0 mi Calm Calm - N/A   Clear
4:55 AM 55.6 °F 55.6 °F 100% 29.98 in 10.0 mi East 3.5 mph - N/A   Clear
5:17 AM 55.8 °F 55.8 °F 100% 29.98 in 10.0 mi East 4.6 mph - N/A   Clear
5:36 AM 55.6 °F 55.6 °F 100% 29.98 in 10.0 mi East 4.6 mph - N/A   Clear
5:55 AM 54.5 °F 54.5 °F 100% 29.98 in 5.0 mi Calm Calm - N/A   Clear
6:15 AM 54.7 °F 54.7 °F 100% 29.98 in 1.2 mi Calm Calm - N/A   Mist
6:16 AM 54.7 °F 54.7 °F 100% 29.98 in 1.5 mi Calm Calm - N/A   Mist
6:39 AM 54.0 °F 54.0 °F 100% 29.98 in 0.8 mi East 3.5 mph - N/A   Mist
6:57 AM 54.3 °F 54.3 °F 100% 29.97 in 1.8 mi East 3.5 mph - N/A   Mist
7:15 AM 53.8 °F 53.8 °F 100% 29.98 in 0.5 mi Calm Calm - N/A Fog Fog
7:35 AM 55.4 °F 55.4 °F 100% 29.98 in 5.0 mi Calm Calm - N/A   Clear
7:55 AM 56.1 °F 56.1 °F 100% 29.99 in 5.0 mi Calm Calm - N/A   Clear
7:59 AM 56.3 °F 56.3 °F 100% 29.99 in 7.0 mi Calm Calm - N/A   Clear
8:17 AM 57.2 °F 57.2 °F 100% 29.99 in 5.0 mi ESE 3.5 mph - N/A   Mostly Cloudy
8:35 AM 58.3 °F 58.3 °F 100% 30.00 in 2.5 mi Calm Calm - N/A   Overcast
8:55 AM 59.0 °F 59.0 °F 100% 30.00 in 4.0 mi SE 3.5 mph - N/A   Overcast
9:15 AM 61.0 °F 61.0 °F 100% 30.00 in 10.0 mi SSW 3.5 mph - N/A   Scattered Clouds
9:20 AM 61.2 °F 61.2 °F 100% 30.00 in 10.0 mi Calm Calm - N/A   Scattered Clouds
9:38 AM 63.0 °F 62.1 °F 97% 30.00 in 10.0 mi Calm Calm - N/A   Clear
9:56 AM 64.4 °F 61.3 °F 90% 29.98 in 10.0 mi SE 4.6 mph - N/A   Clear
10:15 AM 66.2 °F 59.0 °F 78% 29.98 in 10.0 mi South 4.6 mph - N/A   Clear
10:35 AM 67.5 °F 59.0 °F 74% 29.97 in 10.0 mi South 8.1 mph - N/A   Clear
10:59 AM 69.8 °F 59.2 °F 69% 29.98 in 10.0 mi SSE 9.2 mph - N/A   Clear
11:17 AM 71.2 °F 59.5 °F 66% 29.98 in 10.0 mi SE 8.1 mph - N/A   Clear
11:35 AM 70.7 °F 59.0 °F 66% 29.96 in 10.0 mi South 5.8 mph - N/A   Scattered Clouds
11:36 AM 70.9 °F 58.8 °F 66% 29.96 in 10.0 mi South 4.6 mph - N/A   Scattered Clouds
11:55 AM 72.5 °F 57.6 °F 59% 29.96 in 10.0 mi South 5.8 mph - N/A   Mostly Cloudy
11:56 AM 72.5 °F 57.7 °F 60% 29.96 in 10.0 mi South 5.8 mph - N/A   Mostly Cloudy
12:15 PM 73.8 °F 56.5 °F 55% 29.96 in 10.0 mi SSE 5.8 mph - N/A   Mostly Cloudy
12:20 PM 73.8 °F 57.7 °F 57% 29.96 in 10.0 mi South 8.1 mph - N/A   Mostly Cloudy
12:38 PM 74.1 °F 57.6 °F 56% 29.95 in 10.0 mi South 8.1 mph - N/A   Mostly Cloudy
12:56 PM 75.0 °F 57.4 °F 54% 29.95 in 10.0 mi South 9.2 mph - N/A   Scattered Clouds
1:15 PM 74.5 °F 56.5 °F 53% 29.94 in 10.0 mi SW 9.2 mph 17.3 mph N/A   Mostly Cloudy
1:35 PM 77.0 °F 56.8 °F 50% 29.95 in 10.0 mi SW 10.4 mph - N/A   Overcast
1:36 PM 77.0 °F 57.0 °F 50% 29.94 in 10.0 mi SW 9.2 mph - N/A   Overcast
1:59 PM 76.5 °F 56.5 °F 50% 29.94 in 10.0 mi SW 10.4 mph 17.3 mph N/A   Mostly Cloudy
2:17 PM 74.8 °F 56.8 °F 53% 29.94 in 10.0 mi South 3.5 mph - N/A   Mostly Cloudy
2:35 PM 77.0 °F 56.8 °F 50% 29.93 in 10.0 mi South 8.1 mph - N/A   Mostly Cloudy
2:55 PM 77.2 °F 56.3 °F 48% 29.92 in 10.0 mi South 10.4 mph 17.3 mph N/A   Mostly Cloudy
2:56 PM 77.4 °F 56.1 °F 48% 29.92 in 10.0 mi South 10.4 mph 16.1 mph N/A   Mostly Cloudy
3:15 PM 78.3 °F 54.7 °F 44% 29.91 in 10.0 mi South 8.1 mph - N/A   Overcast
3:20 PM 78.1 °F 55.2 °F 45% 29.91 in 10.0 mi South 8.1 mph - N/A   Overcast
3:38 PM 79.2 °F 48.7 °F 34% 29.90 in 10.0 mi SW 11.5 mph - N/A   Mostly Cloudy
3:56 PM 79.2 °F 48.6 °F 34% 29.90 in 10.0 mi SW 12.7 mph 18.4 mph N/A   Mostly Cloudy
4:15 PM 79.7 °F 48.4 °F 33% 29.90 in 10.0 mi SSW 6.9 mph - N/A   Overcast
4:16 PM 79.7 °F 48.7 °F 34% 29.90 in 10.0 mi South 8.1 mph - N/A   Overcast
4:35 PM 76.8 °F 50.5 °F 40% 29.91 in 10.0 mi SSW 11.5 mph - N/A   Overcast
4:59 PM 77.5 °F 52.0 °F 41% 29.89 in 10.0 mi SSW 10.4 mph - N/A   Overcast
5:17 PM 77.2 °F 53.1 °F 43% 29.88 in 10.0 mi SSW 6.9 mph - N/A   Overcast
5:35 PM 76.1 °F 53.8 °F 46% 29.88 in 10.0 mi South 5.8 mph - N/A   Overcast
5:36 PM 76.1 °F 53.6 °F 45% 29.88 in 10.0 mi South 4.6 mph - N/A   Overcast
5:55 PM 75.6 °F 54.7 °F 48% 29.88 in 10.0 mi South 4.6 mph - N/A   Overcast
5:56 PM 75.6 °F 54.7 °F 48% 29.88 in 10.0 mi South 3.5 mph - N/A   Overcast
6:15 PM 75.2 °F 55.9 °F 51% 29.87 in 10.0 mi South 3.5 mph - N/A   Overcast
6:20 PM 75.0 °F 56.3 °F 52% 29.87 in 10.0 mi South 4.6 mph - N/A   Overcast
6:38 PM 74.8 °F 57.0 °F 54% 29.86 in 10.0 mi SSE 3.5 mph - N/A   Overcast
6:56 PM 75.0 °F 57.6 °F 54% 29.86 in 10.0 mi South 3.5 mph - N/A   Overcast
7:15 PM 74.7 °F 58.3 °F 57% 29.85 in 10.0 mi South 4.6 mph - N/A   Overcast
7:16 PM 74.5 °F 58.3 °F 57% 29.85 in 10.0 mi South 3.5 mph - N/A   Overcast
7:35 PM 75.2 °F 59.2 °F 57% 29.85 in 10.0 mi South 5.8 mph - N/A   Overcast
7:36 PM 75.2 °F 59.2 °F 57% 29.85 in 10.0 mi South 6.9 mph - N/A   Overcast
7:59 PM 74.7 °F 59.5 °F 59% 29.85 in 10.0 mi SSE 3.5 mph - N/A   Overcast
8:17 PM 73.8 °F 59.9 °F 62% 29.85 in 10.0 mi SSE 4.6 mph - N/A   Overcast
8:35 PM 72.3 °F 60.1 °F 65% 29.84 in 10.0 mi SSE 3.5 mph - N/A   Scattered Clouds
8:55 PM 71.8 °F 60.1 °F 67% 29.83 in 10.0 mi SE 4.6 mph - N/A   Scattered Clouds
9:15 PM 71.6 °F 60.4 °F 68% 29.83 in 10.0 mi SE 5.8 mph - N/A   Scattered Clouds
9:19 PM 71.6 °F 60.4 °F 68% 29.83 in 10.0 mi SE 4.6 mph - N/A   Scattered Clouds
9:38 PM 71.1 °F 60.8 °F 70% 29.84 in 10.0 mi SE 5.8 mph - N/A   Scattered Clouds
9:56 PM 70.9 °F 61.0 °F 71% 29.84 in 10.0 mi SE 4.6 mph - N/A   Scattered Clouds
10:35 PM 70.7 °F 61.5 °F 73% 29.80 in 10.0 mi SSE 10.4 mph - N/A   Scattered Clouds
10:59 PM 71.1 °F 61.7 °F 72% 29.80 in 10.0 mi South 9.2 mph 19.6 mph N/A   Scattered Clouds
11:17 PM 71.6 °F 62.2 °F 72% 29.82 in 10.0 mi South 16.1 mph 21.9 mph N/A   Mostly Cloudy
11:35 PM 70.9 °F 63.3 °F 77% 29.83 in 10.0 mi SSW 12.7 mph 17.3 mph N/A   Mostly Cloudy
11:36 PM 70.9 °F 63.3 °F 77% 29.83 in 10.0 mi SSW 11.5 mph 17.3 mph N/A   Overcast
11:55 PM 71.6 °F 64.4 °F 78% 29.85 in 10.0 mi WNW 9.2 mph 26.5 mph N/A   Overcast
11:56 PM 71.6 °F 64.2 °F 77% 29.85 in 10.0 mi NW 9.2 mph 18.4 mph N/A   Overcast